• Join FlightAware (Why Join?)
  • Login
  • US Flag 
08:29AM EDT


 

Airport Tracker/Info


-or-


 

Live Flight TrackerFlight Track Log ✈ FLG4262 ✈ 10-Apr-2014 ✈ KDTW - KBGM

Flight Track Log - Related Links

Times and Time Zones

All times are in EDT time to prevent confusion due to time zone crossing. See the FLG4262 flight status page for this flight to view local times or setup timezone preferences in your user account.

Time Position Orientation Groundspeed Altitude Reporting Facility
EDT Latitude Longitude Course Direction KTS MPH feet Rate Location/Type
04:01PM 42.2097 -83.3478 166° South 134 154 1,500  Level Cleveland Center
04:03PM 42.1206 -83.3181 79° East 212 244 6,600 2,940 Climbing Cleveland Center
04:03PM 42.0847 -83.2853 146° Southeast 305 351 8,100 2,760 Climbing Cleveland Center
04:04PM 42.0561 -83.2403 131° Southeast 306 352 9,500 1,860 Climbing Cleveland Center
04:04PM 42.0519 -83.1656 94° East 397 457 10,000 540 Climbing Cleveland Center
04:05PM 42.0772 -83.1014 62° Northeast 395 455 10,100 1,620 Climbing Cleveland Center
04:06PM 42.1375 -82.9719 58° Northeast 407 468 12,700 1,560 Climbing Cleveland Center
04:07PM 42.2119 -82.8086 58° Northeast 426 490 13,400 1,560 Climbing Cleveland Center
04:08PM 42.2742 -82.6703 59° Northeast 433 498 16,000 1,920 Climbing Cleveland Center
04:10PM 42.3658 -82.3817 67° East 436 502 19,500 1,500 Climbing Cleveland Center
04:11PM 42.3594 -82.2122 93° East 448 516 20,700 1,140 Climbing Cleveland Center
04:13PM 42.3439 -81.8478 95° East 461 531 23,200 1,080 Climbing Cleveland Center
04:14PM 42.3356 -81.6669 94° East 470 541 24,100 900 Climbing Cleveland Center
04:15PM 42.3256 -81.4531 94° East 482 555 25,100 840 Climbing Cleveland Center
04:16PM 42.3164 -81.2675 94° East 485 558 25,900 720 Climbing Cleveland Center
04:17PM 42.3075 -81.0800 94° East 489 563 26,700 660 Climbing Cleveland Center
04:18PM 42.2967 -80.8889 94° East 499 574 27,300 720 Climbing Cleveland Center
04:19PM 42.2869 -80.6972 94° East 503 579 28,200 960 Climbing Cleveland Center
04:20PM 42.2767 -80.5081 94° East 503 579 29,300 660 Climbing Cleveland Center
04:23PM 42.2425 -79.9367 95° East 497 572 31,000 360 Climbing Cleveland Center
04:24PM 42.2303 -79.7497 95° East 505 581 31,000  Level Cleveland Center
04:26PM 42.2033 -79.3389 94° East 503 579 31,000  Level Cleveland Center
04:27PM 42.1911 -79.1550 95° East 498 573 31,000 -540 Level Cleveland Center
04:28PM 42.1917 -78.9692 90° East 498 573 30,000 -1,140 Descending Cleveland Center
04:29PM 42.1950 -79.2779 95° East  Level FlightAware Approximate
04:30PM 42.1950 -78.7594 89° East 498 573 28,700  Level Cleveland Center
04:31PM 42.1992 -78.5717 88° East 499 574 27,300 -900 Descending Cleveland Center
04:33PM 42.2039 -78.2017 89° East 499 574 26,000 -420 Descending Cleveland Center
04:34PM 42.2075 -77.9836 89° East 494 568 26,000 -1,020 Level Cleveland Center
04:35PM 42.2078 -77.7967 90° East 498 573 24,000 -1,980 Descending Cleveland Center
04:36PM 42.2097 -77.6111 89° East 502 578 22,000 -1,980 Descending Cleveland Center
04:37PM 42.2103 -77.4372 90° East 480 552 20,000 -2,040 Descending Cleveland Center
04:38PM 42.2108 -77.2708 90° East 458 527 17,900 -2,100 Descending Cleveland Center
04:40PM 42.2117 -76.9172 90° East 428 493 13,500 -1,920 Descending Cleveland Center
04:42PM 42.2150 -76.6506 89° East 403 464 10,800 -1,380 Descending New York Center
04:43PM 42.2275 -76.5228 82° East 369 425 9,800 -1,320 Descending New York Center
04:44PM 42.2417 -76.4036 81° East 340 391 8,200 -1,560 Descending New York Center
04:45PM 42.2511 -76.2897 84° East 318 366 6,700 -1,500 Descending New York Center
04:46PM 42.2622 -76.1842 82° East 296 341 5,200 -1,560 Descending New York Center
04:47PM 42.2728 -76.0897 81° East 273 314 3,600 -1,020 Descending New York Center
04:47PM 42.2772 -76.0506 81° East 276 318 3,700 180 Climbing Cleveland Center